createdAt,value
2022-08-02T00:02:24.943Z,4.80
2022-08-02T00:07:26.919Z,6.00
2022-08-02T00:12:28.849Z,5.10
2022-08-02T00:17:30.804Z,4.30
2022-08-02T00:22:32.686Z,4.20
2022-08-02T00:27:34.735Z,3.70
2022-08-02T00:32:36.613Z,4.40
2022-08-02T00:37:40.360Z,3.20
2022-08-02T00:42:43.836Z,3.80
2022-08-02T00:47:45.738Z,4.50
2022-08-02T00:52:47.679Z,3.80
2022-08-02T00:57:50.016Z,3.80
2022-08-02T01:02:52.126Z,4.60
2022-08-02T01:07:54.063Z,5.20
2022-08-02T01:12:55.938Z,3.40
2022-08-02T01:18:11.657Z,3.40
2022-08-02T01:23:20.401Z,4.50
2022-08-02T01:28:41.382Z,4.30
2022-08-02T01:33:47.770Z,4.70
2022-08-02T01:38:50.778Z,4.60
2022-08-02T01:43:56.749Z,4.50
2022-08-02T01:49:04.051Z,5.10
2022-08-02T01:54:13.596Z,4.50
2022-08-02T01:59:18.968Z,4.10
2022-08-02T02:04:23.305Z,4.60
2022-08-02T02:09:28.638Z,5.70
2022-08-02T02:14:30.959Z,4.80
2022-08-02T02:24:38.567Z,5.50
2022-08-02T02:29:44.668Z,6.60
2022-08-02T02:34:47.899Z,5.80
2022-08-02T02:39:52.130Z,6.00
2022-08-02T02:44:54.537Z,6.80
2022-08-02T02:55:00.750Z,6.70
2022-08-02T03:05:11.996Z,7.30
2022-08-02T03:10:13.974Z,7.10
2022-08-02T03:15:17.376Z,13.40
2022-08-02T03:20:20.461Z,8.50
2022-08-02T03:25:22.495Z,9.30
2022-08-02T03:30:27.228Z,8.30
2022-08-02T03:35:29.526Z,8.80
2022-08-02T03:40:31.664Z,9.00
2022-08-02T03:45:34.198Z,9.20
2022-08-02T03:50:36.281Z,8.40
2022-08-02T03:55:39.862Z,8.30
2022-08-02T04:00:42.035Z,8.50
2022-08-02T04:05:59.341Z,8.50
2022-08-02T04:11:25.466Z,7.40
2022-08-02T04:16:44.238Z,6.10
2022-08-02T04:21:51.395Z,5.10
2022-08-02T04:27:19.370Z,7.70
2022-08-02T04:32:21.850Z,5.60
2022-08-02T04:37:24.842Z,5.40
2022-08-02T04:42:29.928Z,5.00
2022-08-02T04:47:54.257Z,3.50
2022-08-02T04:52:57.129Z,3.70
2022-08-02T04:58:36.878Z,3.40
2022-08-02T05:03:30.300Z,3.70
2022-08-02T05:08:32.372Z,3.10
2022-08-02T05:13:34.547Z,3.80
2022-08-02T05:18:56.743Z,3.80
2022-08-02T05:24:00.242Z,4.00
2022-08-02T05:29:04.227Z,4.40
2022-08-02T05:34:11.352Z,4.40
2022-08-02T05:39:19.033Z,5.60
2022-08-02T05:44:21.846Z,4.30
2022-08-02T05:49:23.861Z,5.50
2022-08-02T05:55:13.099Z,4.80
2022-08-02T06:00:15.955Z,4.50
2022-08-02T06:05:21.526Z,5.80
2022-08-02T06:10:36.318Z,6.80
2022-08-02T06:15:53.369Z,4.00
2022-08-02T06:20:59.076Z,3.70
2022-08-02T06:26:22.831Z,4.10
2022-08-02T06:31:25.259Z,6.50
2022-08-02T06:36:41.450Z,4.80
2022-08-02T06:41:49.035Z,4.30
2022-08-02T06:47:11.422Z,5.30
2022-08-02T06:52:18.727Z,4.10
2022-08-02T06:57:21.154Z,5.20
2022-08-02T07:02:23.762Z,4.30
2022-08-02T07:07:27.725Z,7.40
2022-08-02T07:12:31.170Z,3.50
2022-08-02T07:17:34.166Z,5.20
2022-08-02T07:22:36.488Z,5.90
2022-08-02T07:27:38.758Z,3.50
2022-08-02T07:32:40.740Z,4.40
2022-08-02T07:37:55.449Z,5.10
2022-08-02T07:43:03.901Z,2.10
2022-08-02T07:48:08.146Z,2.00
2022-08-02T07:53:10.110Z,3.60
2022-08-02T07:58:13.510Z,2.30
2022-08-02T08:03:16.454Z,2.10
2022-08-02T08:08:22.154Z,3.00
2022-08-02T08:13:24.907Z,2.40
2022-08-02T08:18:26.884Z,1.80
2022-08-02T08:23:30.106Z,1.30
2022-08-02T08:28:39.632Z,1.40
2022-08-02T08:33:52.351Z,3.00
2022-08-02T08:38:55.975Z,1.10
2022-08-02T08:44:00.674Z,1.60
2022-08-02T08:49:12.873Z,0.90
2022-08-02T08:54:18.452Z,1.30
2022-08-02T08:59:23.072Z,1.10
2022-08-02T09:04:25.063Z,1.20
2022-08-02T09:09:29.453Z,1.00
2022-08-02T09:14:32.559Z,2.40
2022-08-02T09:19:36.546Z,2.30
2022-08-02T09:24:44.848Z,0.90
2022-08-02T09:30:12.497Z,0.60
2022-08-02T09:35:16.728Z,0.80
2022-08-02T09:40:34.972Z,0.80
2022-08-02T09:45:40.634Z,1.20
2022-08-02T09:50:45.523Z,0.70
2022-08-02T09:55:56.409Z,1.20
2022-08-02T10:00:58.655Z,0.80
2022-08-02T10:06:03.111Z,0.70
2022-08-02T10:11:05.568Z,0.70
2022-08-02T10:16:07.776Z,0.70
2022-08-02T10:21:13.782Z,0.80
2022-08-02T10:26:17.748Z,1.50
2022-08-02T10:31:24.150Z,2.20
2022-08-02T10:36:28.975Z,1.50
2022-08-02T10:41:49.427Z,0.70
2022-08-02T10:47:16.880Z,3.00
2022-08-02T10:52:21.308Z,0.90
2022-08-02T10:57:26.194Z,1.20
2022-08-02T11:02:43.070Z,0.80
2022-08-02T11:07:49.899Z,2.00
2022-08-02T11:13:01.401Z,2.90
2022-08-02T11:18:04.169Z,2.40
2022-08-02T11:23:44.298Z,0.70
2022-08-02T11:28:50.916Z,1.30
2022-08-02T11:33:54.037Z,1.30
2022-08-02T11:39:15.863Z,2.20
2022-08-02T11:44:19.301Z,0.80
2022-08-02T11:49:28.901Z,0.90
2022-08-02T11:54:35.412Z,3.30
2022-08-02T11:59:39.152Z,2.00
2022-08-02T12:04:41.665Z,1.50
2022-08-02T12:09:46.388Z,2.50
2022-08-02T12:14:48.360Z,1.20
2022-08-02T12:19:57.232Z,2.70
2022-08-02T12:24:59.574Z,1.80
2022-08-02T12:30:10.385Z,1.90
2022-08-02T12:35:26.491Z,0.90
2022-08-02T12:40:31.996Z,1.20
2022-08-02T12:45:55.198Z,0.90
2022-08-02T12:50:57.653Z,2.40
2022-08-02T12:56:03.661Z,1.70
2022-08-02T13:01:06.026Z,0.90
2022-08-02T13:06:32.331Z,3.90
2022-08-02T13:11:30.366Z,3.30
2022-08-02T13:16:34.237Z,1.50
2022-08-02T13:22:01.560Z,3.00
2022-08-02T13:27:08.709Z,1.30
2022-08-02T13:32:11.779Z,1.40
2022-08-02T13:37:14.244Z,0.90
2022-08-02T13:42:18.851Z,1.20
2022-08-02T13:47:35.914Z,0.90
2022-08-02T13:52:44.250Z,1.50
2022-08-02T13:57:46.212Z,1.50
2022-08-02T14:02:55.767Z,0.90
2022-08-02T14:08:00.273Z,2.70
2022-08-02T14:13:04.028Z,3.20
2022-08-02T14:18:06.335Z,1.20
2022-08-02T14:23:08.371Z,2.40
2022-08-02T14:28:15.478Z,2.90
2022-08-02T14:33:22.387Z,1.00
2022-08-02T14:38:28.758Z,3.70
2022-08-02T14:43:54.527Z,2.60
2022-08-02T14:49:06.038Z,2.00
2022-08-02T14:54:12.018Z,1.10
2022-08-02T14:59:20.017Z,2.10
2022-08-02T15:04:25.482Z,5.10
2022-08-02T15:09:40.159Z,1.20
2022-08-02T15:14:45.583Z,1.40
2022-08-02T15:19:59.325Z,0.90
2022-08-02T15:25:03.657Z,2.00
2022-08-02T15:30:22.901Z,1.50
2022-08-02T15:35:28.201Z,1.10
2022-08-02T15:40:32.574Z,1.20
2022-08-02T15:45:35.605Z,1.60
2022-08-02T15:50:37.747Z,1.40
2022-08-02T15:56:04.474Z,1.10
2022-08-02T16:01:05.187Z,1.50
2022-08-02T16:06:07.458Z,1.20
2022-08-02T16:11:09.772Z,2.80
2022-08-02T16:16:15.022Z,1.10
2022-08-02T16:21:23.171Z,1.70
2022-08-02T16:26:26.109Z,1.20
2022-08-02T16:31:28.266Z,1.10
2022-08-02T16:36:30.766Z,1.30
2022-08-02T16:41:51.609Z,3.30
2022-08-02T16:46:55.633Z,2.20
2022-08-02T16:51:58.040Z,1.00
2022-08-02T16:57:03.487Z,7.70
2022-08-02T17:02:11.676Z,1.40
2022-08-02T17:08:16.499Z,2.40
2022-08-02T17:12:39.890Z,1.30
2022-08-02T17:17:44.444Z,2.20
2022-08-02T17:22:49.923Z,2.00
2022-08-02T17:27:56.001Z,3.70
2022-08-02T17:33:01.078Z,1.20
2022-08-02T17:38:03.619Z,11.50
2022-08-02T17:43:14.529Z,4.00
2022-08-02T17:48:21.706Z,3.90
2022-08-02T17:53:36.445Z,3.80
2022-08-02T17:58:38.608Z,1.60
2022-08-02T18:03:54.655Z,1.60
2022-08-02T18:08:59.628Z,2.40
2022-08-02T18:14:01.653Z,4.40
2022-08-02T18:19:04.473Z,2.30
2022-08-02T18:24:09.935Z,2.70
2022-08-02T18:29:12.406Z,3.40
2022-08-02T18:34:14.730Z,2.80
2022-08-02T18:39:17.146Z,6.80
2022-08-02T18:44:19.602Z,6.40
2022-08-02T18:49:23.577Z,2.40
2022-08-02T18:54:26.799Z,4.40
2022-08-02T18:59:36.829Z,5.70
2022-08-02T19:04:43.754Z,2.30
2022-08-02T19:09:49.230Z,2.40
2022-08-02T19:14:54.028Z,2.40
2022-08-02T19:19:56.286Z,4.80
2022-08-02T19:25:01.262Z,2.40
2022-08-02T19:30:07.401Z,3.20
2022-08-02T19:35:29.266Z,7.10
2022-08-02T19:40:34.089Z,8.10
2022-08-02T19:45:53.227Z,3.50
2022-08-02T19:51:16.690Z,6.70
2022-08-02T19:56:37.580Z,5.20
2022-08-02T20:01:48.481Z,3.90
2022-08-02T20:06:51.344Z,6.60
2022-08-02T20:16:57.792Z,7.60
2022-08-02T20:27:07.154Z,5.70
2022-08-02T20:32:11.567Z,11.00
2022-08-02T20:38:00.480Z,8.80
2022-08-02T20:42:42.347Z,5.80
2022-08-02T20:47:50.968Z,4.00
2022-08-02T20:52:55.163Z,3.40
2022-08-02T20:58:03.110Z,4.50
2022-08-02T21:03:14.250Z,4.30
2022-08-02T21:08:21.981Z,4.30
2022-08-02T21:13:26.889Z,7.50
2022-08-02T21:18:40.955Z,5.40
2022-08-02T21:23:48.797Z,6.60
2022-08-02T21:29:03.127Z,12.70
2022-08-02T21:34:22.135Z,8.10
2022-08-02T21:39:28.961Z,4.30
2022-08-02T21:44:38.570Z,4.50
2022-08-02T21:50:13.294Z,6.10
2022-08-02T21:55:24.242Z,9.70
2022-08-02T22:00:57.132Z,5.10
2022-08-02T22:06:12.592Z,4.70
2022-08-02T22:11:17.219Z,4.90
2022-08-02T22:16:24.043Z,7.00
2022-08-02T22:21:55.010Z,5.60
2022-08-02T22:27:05.230Z,11.70
2022-08-02T22:32:38.837Z,3.90
2022-08-02T22:38:17.506Z,7.20
2022-08-02T22:43:22.758Z,5.70
2022-08-02T22:48:40.635Z,5.80
2022-08-02T22:53:57.265Z,11.50
2022-08-02T23:04:25.902Z,6.10
2022-08-02T23:09:33.501Z,5.40
2022-08-02T23:14:59.626Z,5.90
2022-08-02T23:20:16.007Z,5.10
2022-08-02T23:25:21.976Z,8.90
2022-08-02T23:30:34.477Z,5.70
2022-08-02T23:35:50.720Z,8.10
2022-08-02T23:40:59.636Z,6.80
2022-08-02T23:46:05.652Z,6.80
2022-08-02T23:51:11.800Z,6.40
2022-08-02T23:56:29.537Z,7.50
